Time;durP1;ratioP1;P1;durP2;ratioP2;P2;SDS_P1;SDS_P2;PMS_P1;PMS_P2;Temp;Humidity;BMP_temperature;BMP_pressure;BME280_temperature;BME280_humidity;BME280_pressure;Samples;Min_cycle;Max_cycle;Signal;HPM_P1;HPM_P2
2022/08/16 04:04:56;;;;;;;4.90;3.70;;;16.30;99.90;;;;;;5284955;23;20486;-64
2022/08/16 04:07:22;;;;;;;3.80;3.47;;;16.30;99.90;;;;;;4975351;28;20509;-66
2022/08/16 04:09:48;;;;;;;4.03;3.73;;;16.30;99.90;;;;;;4974350;28;20172;-64
2022/08/16 04:12:13;;;;;;;6.13;2.87;;;16.20;99.90;;;;;;4974955;28;20176;-65
2022/08/16 04:14:39;;;;;;;4.57;3.47;;;16.20;99.90;;;;;;4974128;28;20294;-63
2022/08/16 04:17:05;;;;;;;4.27;3.23;;;16.10;99.90;;;;;;4974582;28;20550;-66
2022/08/16 04:19:31;;;;;;;3.97;3.50;;;16.10;99.90;;;;;;4974878;28;20255;-65
2022/08/16 04:21:57;;;;;;;3.50;3.20;;;16.10;99.90;;;;;;4975033;28;20266;-65
2022/08/16 04:24:22;;;;;;;3.87;3.53;;;16.10;99.90;;;;;;4974610;28;20998;-65
2022/08/16 04:26:48;;;;;;;4.23;3.80;;;16.10;99.90;;;;;;4974876;28;20242;-64
2022/08/16 04:29:15;;;;;;;3.70;3.33;;;16.10;99.90;;;;;;4974827;28;20212;-64
2022/08/16 04:31:41;;;;;;;4.17;3.43;;;16.10;99.90;;;;;;4974825;28;20606;-64
2022/08/16 04:34:06;;;;;;;4.83;3.73;;;16.10;99.90;;;;;;4973242;28;20546;-65
2022/08/16 04:36:32;;;;;;;5.80;3.97;;;16.10;99.90;;;;;;4974502;28;20172;-65
2022/08/16 04:38:57;;;;;;;3.90;3.07;;;16.20;99.90;;;;;;4975004;28;20183;-65
2022/08/16 04:41:23;;;;;;;4.57;3.43;;;16.20;99.90;;;;;;4974833;28;20175;-64
2022/08/16 04:43:50;;;;;;;3.10;2.90;;;16.30;99.90;;;;;;4974394;28;20565;-64
2022/08/16 04:46:16;;;;;;;4.70;3.20;;;16.40;99.90;;;;;;4974909;28;20184;-65
2022/08/16 04:48:42;;;;;;;4.03;3.20;;;16.40;99.90;;;;;;4973570;28;20547;-65
2022/08/16 04:51:09;;;;;;;4.00;3.60;;;16.60;99.90;;;;;;4974362;28;20455;-65
2022/08/16 04:53:35;;;;;;;2.97;2.63;;;16.70;99.90;;;;;;4974242;28;20480;-64
2022/08/16 04:56:01;;;;;;;3.63;3.30;;;16.80;99.90;;;;;;4974651;28;20478;-64
2022/08/16 04:58:27;;;;;;;3.40;3.10;;;16.90;99.90;;;;;;4974502;28;20422;-64
2022/08/16 05:00:53;;;;;;;3.47;3.03;;;17.10;99.90;;;;;;4974515;28;20718;-64
2022/08/16 05:03:19;;;;;;;2.90;2.70;;;17.20;99.90;;;;;;4974169;28;20668;-65
2022/08/16 05:05:45;;;;;;;3.33;3.10;;;17.40;99.90;;;;;;4974224;28;20940;-64
2022/08/16 05:08:12;;;;;;;3.53;3.23;;;17.70;99.90;;;;;;4974491;28;20410;-64
2022/08/16 05:10:38;;;;;;;3.40;2.90;;;18.00;99.90;;;;;;4959172;28;20828;-70
2022/08/16 05:13:05;;;;;;;3.70;3.30;;;18.40;99.90;;;;;;4954810;28;20451;-67
2022/08/16 05:15:31;;;;;;;3.53;2.80;;;18.70;99.90;;;;;;4956647;28;20411;-67
2022/08/16 05:17:57;;;;;;;3.90;3.23;;;19.00;99.90;;;;;;4974336;28;20785;-66
2022/08/16 05:20:23;;;;;;;5.40;3.50;;;19.20;99.90;;;;;;4974267;28;20420;-69
2022/08/16 05:22:49;;;;;;;3.60;3.30;;;19.20;99.90;;;;;;4977715;28;20223;-67
2022/08/16 05:25:15;;;;;;;3.77;3.47;;;19.10;99.90;;;;;;4978235;28;20896;-68
2022/08/16 05:27:42;;;;;;;3.57;3.27;;;19.10;99.90;;;;;;4978043;28;20194;-70
2022/08/16 05:30:12;;;;;;;3.17;2.87;;;19.00;99.90;;;;;;4978158;28;20415;-73
2022/08/16 05:32:38;;;;;;;4.07;3.23;;;19.00;99.90;;;;;;4974493;28;20435;-68
2022/08/16 05:35:06;;;;;;;3.63;3.33;;;18.90;99.90;;;;;;4977330;28;20447;-67
2022/08/16 05:37:33;;;;;;;3.80;2.80;;;18.90;99.90;;;;;;4977893;28;20401;-67
2022/08/16 05:39:59;;;;;;;4.73;3.90;;;18.80;99.90;;;;;;4978030;28;20404;-67
2022/08/16 05:42:25;;;;;;;3.60;3.30;;;18.80;99.90;;;;;;4977318;28;20404;-68
2022/08/16 05:44:50;;;;;;;3.07;2.73;;;18.80;99.90;;;;;;4977702;28;20423;-69
2022/08/16 05:47:16;;;;;;;3.27;3.07;;;18.70;99.90;;;;;;4965665;28;20267;-68
2022/08/16 05:49:41;;;;;;;3.60;3.40;;;18.80;99.90;;;;;;4977266;28;20191;-68
2022/08/16 05:52:09;;;;;;;2.80;2.60;;;18.70;99.90;;;;;;4973361;28;20551;-68
2022/08/16 05:54:34;;;;;;;4.63;3.73;;;18.70;99.90;;;;;;4976223;28;20240;-68
2022/08/16 05:57:00;;;;;;;3.50;3.20;;;18.70;99.90;;;;;;4976639;28;20420;-67
2022/08/16 05:59:25;;;;;;;3.43;3.10;;;18.70;99.90;;;;;;4976663;28;20214;-68
2022/08/16 06:01:51;;;;;;;3.00;2.80;;;18.60;99.90;;;;;;4977520;28;20589;-66
2022/08/16 06:04:18;;;;;;;5.03;3.50;;;18.60;99.90;;;;;;4976832;28;20205;-67
2022/08/16 06:06:45;;;;;;;3.10;2.80;;;18.60;99.90;;;;;;4977428;28;20461;-67
2022/08/16 06:09:11;;;;;;;3.70;3.23;;;18.60;99.90;;;;;;4977482;28;20410;-69
2022/08/16 06:11:37;;;;;;;4.07;3.67;;;18.60;99.90;;;;;;4977369;28;20454;-67
2022/08/16 06:14:04;;;;;;;3.70;3.40;;;18.70;99.90;;;;;;4977019;28;20503;-68
2022/08/16 06:16:30;;;;;;;3.17;2.97;;;18.70;99.90;;;;;;4977379;28;20179;-68
2022/08/16 06:18:57;;;;;;;4.73;3.23;;;18.80;99.90;;;;;;4977285;28;20898;-70
2022/08/16 06:21:23;;;;;;;4.17;3.70;;;18.80;99.90;;;;;;4977317;28;20174;-71
2022/08/16 06:23:49;;;;;;;3.83;3.50;;;18.90;99.90;;;;;;4976800;28;20458;-69
2022/08/16 06:26:14;;;;;;;3.80;3.50;;;18.90;99.90;;;;;;4976882;28;20431;-69
2022/08/16 06:28:40;;;;;;;6.93;3.27;;;18.90;99.90;;;;;;4977212;28;20411;-67
2022/08/16 06:31:10;;;;;;;4.90;3.57;;;19.10;99.90;;;;;;4972494;28;20176;-70
2022/08/16 06:33:35;;;;;;;3.83;3.13;;;19.10;99.90;;;;;;4962064;28;20463;-68
2022/08/16 06:36:01;;;;;;;3.67;3.37;;;19.30;99.90;;;;;;4957932;28;20923;-69
2022/08/16 06:38:27;;;;;;;4.10;3.70;;;19.50;99.90;;;;;;4977079;28;20522;-68
2022/08/16 06:40:53;;;;;;;3.20;2.90;;;19.70;99.90;;;;;;4975779;28;20179;-69
2022/08/16 06:43:19;;;;;;;4.17;3.70;;;19.90;99.90;;;;;;4975259;28;20443;-70
2022/08/16 06:45:48;;;;;;;3.37;3.17;;;20.00;99.90;;;;;;4976830;28;20531;-70
2022/08/16 06:48:14;;;;;;;4.10;3.23;;;20.20;99.90;;;;;;4976229;28;20503;-70
2022/08/16 06:50:40;;;;;;;2.87;2.60;;;20.40;99.90;;;;;;4962200;28;20502;-70
2022/08/16 06:53:06;;;;;;;3.10;2.90;;;;;;;;;;4976132;28;20263;-63
2022/08/16 06:55:35;;;;;;;3.23;2.93;;;20.60;99.90;;;;;;4976566;28;20878;-63
2022/08/16 06:58:01;;;;;;;3.43;3.13;;;21.10;99.90;;;;;;4976820;28;20806;-63
2022/08/16 07:00:27;;;;;;;3.13;2.93;;;21.30;99.90;;;;;;4975327;28;20915;-63
2022/08/16 07:02:52;;;;;;;2.80;2.60;;;21.40;99.90;;;;;;4976192;28;20409;-63
2022/08/16 07:05:20;;;;;;;3.43;2.87;;;21.40;99.90;;;;;;4976273;28;20687;-69
2022/08/16 07:07:47;;;;;;;3.50;3.20;;;21.50;99.90;;;;;;4976130;28;20654;-64
2022/08/16 07:10:15;;;;;;;3.50;3.20;;;21.50;99.90;;;;;;4976600;28;20871;-64
2022/08/16 07:12:41;;;;;;;3.50;3.10;;;21.60;99.90;;;;;;4976011;28;20434;-65
2022/08/16 07:15:08;;;;;;;4.07;3.77;;;21.70;99.90;;;;;;4976183;28;20435;-65
2022/08/16 07:17:35;;;;;;;3.47;3.27;;;21.80;99.90;;;;;;4976303;28;20482;-64
2022/08/16 07:20:01;;;;;;;4.40;3.47;;;21.90;99.90;;;;;;4976326;28;20448;-64
2022/08/16 07:22:26;;;;;;;3.53;3.23;;;22.10;99.90;;;;;;4975782;28;20423;-65
2022/08/16 07:24:52;;;;;;;5.20;3.70;;;22.10;99.90;;;;;;4975991;28;20444;-65
2022/08/16 07:27:18;;;;;;;3.67;3.37;;;22.30;99.90;;;;;;4976200;28;20179;-65
2022/08/16 07:29:44;;;;;;;3.90;3.50;;;22.40;99.90;;;;;;4975963;28;20178;-66
2022/08/16 07:32:10;;;;;;;4.13;3.70;;;22.60;99.90;;;;;;4975812;28;20182;-63
2022/08/16 07:34:37;;;;;;;3.00;2.80;;;22.70;99.90;;;;;;4975627;28;20214;-63
2022/08/16 07:37:08;;;;;;;3.43;3.17;;;23.00;99.90;;;;;;4975207;28;20498;-65
2022/08/16 07:39:34;;;;;;;5.03;3.23;;;23.50;99.90;;;;;;4975545;28;20230;-65
2022/08/16 07:42:00;;;;;;;3.17;2.97;;;24.40;99.90;;;;;;4975192;28;20498;-66
2022/08/16 07:44:26;;;;;;;4.70;3.90;;;25.30;99.50;;;;;;4973380;28;21009;-64
2022/08/16 07:46:52;;;;;;;4.67;3.00;;;26.40;96.60;;;;;;4975714;28;20393;-66
2022/08/16 07:49:18;;;;;;;2.93;2.73;;;27.20;95.40;;;;;;4975691;28;20390;-66
2022/08/16 07:51:43;;;;;;;4.17;3.87;;;28.30;92.90;;;;;;4962629;28;20196;-66
2022/08/16 07:54:09;;;;;;;3.47;3.27;;;29.40;90.40;;;;;;4955851;28;20552;-65
2022/08/16 07:56:35;;;;;;;5.73;3.20;;;30.30;86.20;;;;;;4956245;29;20184;-63
2022/08/16 07:59:01;;;;;;;4.00;3.60;;;31.20;81.20;;;;;;4956657;28;20383;-64
2022/08/16 08:01:28;;;;;;;3.07;2.87;;;32.00;78.90;;;;;;4956254;28;20763;-64
2022/08/16 08:03:54;;;;;;;4.00;3.70;;;32.60;76.30;;;;;;4955650;29;20201;-65
2022/08/16 08:06:22;;;;;;;4.57;4.23;;;33.10;72.10;;;;;;4955795;28;20444;-64
2022/08/16 08:08:48;;;;;;;3.90;3.60;;;33.70;70.80;;;;;;4956083;29;20467;-64
2022/08/16 08:11:14;;;;;;;3.87;3.57;;;34.30;69.60;;;;;;4956250;28;20412;-66
2022/08/16 08:13:40;;;;;;;4.00;3.70;;;34.80;65.70;;;;;;4955533;28;20464;-65
2022/08/16 08:16:06;;;;;;;4.10;3.80;;;34.90;63.70;;;;;;4956113;29;20483;-66
2022/08/16 08:18:31;;;;;;;4.33;3.00;;;35.30;63.10;;;;;;4955884;28;20184;-64
2022/08/16 08:20:57;;;;;;;3.33;3.03;;;35.60;62.20;;;;;;4955956;28;20215;-65
2022/08/16 08:23:22;;;;;;;4.53;4.23;;;35.80;61.80;;;;;;4955385;28;20205;-65
2022/08/16 08:25:48;;;;;;;4.13;3.83;;;36.00;58.50;;;;;;4964884;28;20230;-64
2022/08/16 08:28:15;;;;;;;3.67;3.47;;;35.70;59.30;;;;;;4975144;28;20188;-65
2022/08/16 08:30:41;;;;;;;4.13;3.83;;;36.00;58.50;;;;;;4975106;28;20176;-66
2022/08/16 08:33:07;;;;;;;4.07;3.87;;;36.00;58.30;;;;;;4974507;28;20610;-65
2022/08/16 08:35:33;;;;;;;4.47;4.17;;;35.90;58.20;;;;;;4974967;28;20447;-65
2022/08/16 08:38:00;;;;;;;4.33;4.03;;;35.90;57.90;;;;;;4974998;28;20660;-64
2022/08/16 08:40:28;;;;;;;6.20;5.80;;;36.30;57.80;;;;;;4976463;28;20407;-65
2022/08/16 08:42:55;;;;;;;3.97;3.77;;;36.90;56.80;;;;;;4974447;28;20815;-66
2022/08/16 08:45:21;;;;;;;4.50;4.20;;;37.10;56.60;;;;;;4974855;28;20438;-66
2022/08/16 08:47:47;;;;;;;4.80;4.50;;;37.30;54.50;;;;;;4974786;28;20977;-66
2022/08/16 08:50:15;;;;;;;4.77;4.40;;;37.20;54.30;;;;;;4973636;28;20407;-65
2022/08/16 08:52:41;;;;;;;4.40;4.10;;;37.20;54.40;;;;;;4974405;28;20200;-65
2022/08/16 08:55:09;;;;;;;4.00;3.80;;;37.40;54.10;;;;;;4973923;28;20514;-65
2022/08/16 08:57:35;;;;;;;4.60;4.30;;;;;;;;;;4974602;28;20495;-65
2022/08/16 09:00:03;;;;;;;4.50;4.20;;;;;;;;;;4974545;28;20415;-65
2022/08/16 09:02:28;;;;;;;4.83;4.40;;;37.90;54.20;;;;;;4974377;28;20419;-65
2022/08/16 09:04:54;;;;;;;4.00;3.80;;;35.90;54.10;;;;;;4974438;28;20968;-65
2022/08/16 09:07:20;;;;;;;4.60;4.30;;;34.90;54.90;;;;;;4974510;28;20227;-64
2022/08/16 09:09:46;;;;;;;4.30;4.00;;;33.90;56.70;;;;;;4974623;28;20172;-64
2022/08/16 09:12:14;;;;;;;4.20;3.90;;;33.20;57.50;;;;;;4974432;28;20410;-64
2022/08/16 09:14:42;;;;;;;4.13;3.73;;;32.40;58.70;;;;;;4974255;28;20955;-65
2022/08/16 09:17:07;;;;;;;4.57;4.27;;;31.70;60.40;;;;;;4974327;28;20445;-64
2022/08/16 09:19:35;;;;;;;4.30;3.97;;;31.30;61.20;;;;;;4973068;28;20785;-65
2022/08/16 09:22:02;;;;;;;4.20;3.90;;;31.00;63.90;;;;;;4974576;28;20544;-65
2022/08/16 09:24:27;;;;;;;3.90;3.60;;;31.10;63.50;;;;;;4974123;28;20422;-64
2022/08/16 09:26:53;;;;;;;4.50;4.10;;;30.80;64.50;;;;;;4974138;28;20429;-64
2022/08/16 09:29:19;;;;;;;4.97;4.10;;;30.50;64.30;;;;;;4974259;28;20188;-64
2022/08/16 09:31:46;;;;;;;4.27;3.93;;;30.30;64.30;;;;;;4974216;28;20252;-65
2022/08/16 09:34:11;;;;;;;3.70;3.40;;;30.00;65.00;;;;;;4973719;28;20446;-65
2022/08/16 09:36:37;;;;;;;4.67;4.27;;;29.70;65.80;;;;;;4974399;28;20422;-65
2022/08/16 09:39:03;;;;;;;4.00;3.63;;;29.20;67.20;;;;;;4974210;28;20645;-64
2022/08/16 09:41:30;;;;;;;4.40;4.10;;;28.70;68.40;;;;;;4974278;28;20404;-64
2022/08/16 09:43:56;;;;;;;4.33;3.90;;;28.30;70.60;;;;;;4973883;28;20419;-65
2022/08/16 09:46:22;;;;;;;4.10;3.80;;;28.20;72.10;;;;;;4974335;28;20763;-66
2022/08/16 09:48:48;;;;;;;4.77;4.37;;;28.00;72.20;;;;;;4974343;28;20406;-65
2022/08/16 09:51:14;;;;;;;4.17;3.87;;;27.90;72.40;;;;;;4974260;28;20394;-65
2022/08/16 09:53:40;;;;;;;3.70;3.40;;;27.80;72.50;;;;;;4973870;28;20489;-64
2022/08/16 09:56:18;;;;;;;3.87;3.60;;;27.80;73.10;;;;;;4974353;28;20437;-64
2022/08/16 09:58:44;;;;;;;4.30;4.00;;;28.10;74.30;;;;;;4974322;28;20187;-64
2022/08/16 10:01:10;;;;;;;6.43;4.40;;;29.00;72.40;;;;;;4972805;28;20435;-65
2022/08/16 10:03:36;;;;;;;4.10;3.80;;;30.20;69.60;;;;;;4973619;28;20192;-65
2022/08/16 10:06:02;;;;;;;4.17;3.87;;;31.10;66.30;;;;;;4973728;28;20562;-65
2022/08/16 10:08:27;;;;;;;4.20;3.90;;;32.10;63.70;;;;;;4977435;28;20408;-65
2022/08/16 10:13:38;;;;;;;4.70;4.40;;;33.20;59.80;;;;;;4977097;28;20223;-64
2022/08/16 10:16:04;;;;;;;4.43;4.03;;;33.40;59.70;;;;;;4977578;28;20502;-65
2022/08/16 10:18:31;;;;;;;4.63;3.80;;;33.10;59.40;;;;;;4977394;28;20426;-65
2022/08/16 10:21:00;;;;;;;5.00;3.63;;;32.90;59.40;;;;;;4977232;28;20416;-65
2022/08/16 10:23:28;;;;;;;4.10;3.80;;;32.90;59.50;;;;;;4976903;28;20438;-66
2022/08/16 10:25:54;;;;;;;5.50;5.10;;;32.80;59.20;;;;;;4977094;28;20455;-65
2022/08/16 10:28:19;;;;;;;5.53;4.00;;;32.20;59.20;;;;;;4977333;28;20425;-64
2022/08/16 10:30:45;;;;;;;5.33;3.60;;;31.60;60.40;;;;;;4976848;28;20200;-65
2022/08/16 10:33:12;;;;;;;3.73;3.53;;;31.10;60.70;;;;;;4976755;28;20204;-64
2022/08/16 10:35:39;;;;;;;4.63;4.20;;;30.60;62.10;;;;;;4977028;28;20184;-64
2022/08/16 10:38:04;;;;;;;3.70;3.50;;;30.30;63.30;;;;;;4976994;28;20404;-64
2022/08/16 10:40:30;;;;;;;4.13;3.83;;;30.20;64.00;;;;;;4976934;28;20440;-64
2022/08/16 10:43:00;;;;;;;4.87;4.47;;;29.80;65.00;;;;;;4976600;28;20263;-64
2022/08/16 10:45:31;;;;;;;4.37;4.07;;;29.60;66.50;;;;;;4976988;28;20410;-65
2022/08/16 10:47:56;;;;;;;4.70;4.20;;;29.60;67.20;;;;;;4977039;28;20457;-65
2022/08/16 10:50:22;;;;;;;4.57;4.27;;;29.50;67.10;;;;;;4976812;28;20444;-65
2022/08/16 10:52:48;;;;;;;4.90;4.50;;;29.50;67.90;;;;;;4976517;28;20191;-64
2022/08/16 10:55:14;;;;;;;4.10;3.70;;;29.50;67.60;;;;;;4976714;28;20197;-65
2022/08/16 10:57:40;;;;;;;4.63;4.33;;;29.60;67.50;;;;;;4976672;28;20180;-63
2022/08/16 11:00:11;;;;;;;4.30;3.90;;;29.80;66.50;;;;;;4976380;28;20865;-64
2022/08/16 11:02:38;;;;;;;3.97;3.63;;;30.00;65.90;;;;;;4976039;28;20454;-65
2022/08/16 11:05:06;;;;;;;3.80;3.50;;;30.50;65.60;;;;;;4976154;28;20462;-64
2022/08/16 11:07:32;;;;;;;4.60;4.30;;;31.10;62.70;;;;;;4976346;28;20389;-65
2022/08/16 11:10:00;;;;;;;3.73;3.50;;;31.60;60.60;;;;;;4976364;28;20382;-65
2022/08/16 11:12:27;;;;;;;3.90;3.70;;;32.00;60.00;;;;;;4976004;28;20173;-65
2022/08/16 11:14:53;;;;;;;4.50;4.20;;;32.30;59.50;;;;;;4975969;28;20795;-65
2022/08/16 11:17:18;;;;;;;4.20;3.90;;;32.40;59.70;;;;;;4976422;28;20411;-65
2022/08/16 11:19:44;;;;;;;4.53;4.23;;;32.30;59.50;;;;;;4975792;28;20390;-64
2022/08/16 11:22:09;;;;;;;4.00;3.80;;;32.10;59.90;;;;;;4976079;28;20234;-66
2022/08/16 11:24:39;;;;;;;4.40;4.10;;;32.00;59.50;;;;;;4975758;28;20290;-65
2022/08/16 11:27:07;;;;;;;4.03;3.83;;;31.90;59.70;;;;;;4975962;28;20194;-66
2022/08/16 11:29:34;;;;;;;4.10;3.80;;;31.90;59.60;;;;;;4976123;28;20394;-63
2022/08/16 11:32:00;;;;;;;4.27;3.97;;;31.60;59.60;;;;;;4975951;28;20402;-64
2022/08/16 11:34:26;;;;;;;4.80;4.40;;;31.30;61.10;;;;;;4975356;28;20540;-65
2022/08/16 11:36:52;;;;;;;4.40;4.10;;;31.00;62.30;;;;;;4975879;28;20498;-65
2022/08/16 11:39:17;;;;;;;4.73;4.43;;;30.80;61.50;;;;;;4975930;28;20172;-64
2022/08/16 11:41:43;;;;;;;4.80;4.50;;;30.60;61.90;;;;;;4975649;28;20654;-64
2022/08/16 11:44:10;;;;;;;4.57;4.27;;;30.30;62.40;;;;;;4975324;28;20203;-65
2022/08/16 11:46:37;;;;;;;5.00;4.60;;;30.10;64.30;;;;;;4975429;28;20921;-64
2022/08/16 11:49:04;;;;;;;6.10;4.67;;;30.20;65.10;;;;;;4975396;28;20433;-65
2022/08/16 11:51:30;;;;;;;6.03;5.07;;;30.40;64.50;;;;;;4975592;28;20394;-64
2022/08/16 11:53:56;;;;;;;7.37;5.57;;;30.50;62.10;;;;;;4974881;28;20965;-64
2022/08/16 11:56:22;;;;;;;5.07;4.77;;;30.40;62.00;;;;;;4975363;28;20219;-65
2022/08/16 11:58:49;;;;;;;4.77;4.27;;;30.10;62.80;;;;;;4975530;28;20466;-65
2022/08/16 12:01:14;;;;;;;4.00;3.70;;;29.90;63.00;;;;;;4975282;28;20383;-65
2022/08/16 12:03:41;;;;;;;4.27;3.97;;;29.70;64.20;;;;;;4974753;28;20443;-65
2022/08/16 12:06:17;;;;;;;5.00;4.50;;;29.40;64.50;;;;;;4973761;28;20200;-66
2022/08/16 12:08:44;;;;;;;4.30;3.90;;;29.30;65.90;;;;;;4975378;28;20495;-65
2022/08/16 12:11:11;;;;;;;5.90;5.40;;;29.20;65.90;;;;;;4975096;28;20424;-66
2022/08/16 12:13:37;;;;;;;5.30;4.93;;;29.20;66.10;;;;;;4974939;28;20818;-65
2022/08/16 12:16:05;;;;;;;4.87;4.47;;;29.20;65.70;;;;;;4975617;28;20423;-64
2022/08/16 12:18:30;;;;;;;4.40;4.00;;;29.10;65.80;;;;;;4975230;28;20487;-64
2022/08/16 12:20:56;;;;;;;4.17;3.90;;;29.10;65.60;;;;;;4975267;28;20544;-65
2022/08/16 12:23:22;;;;;;;4.40;4.00;;;29.20;65.80;;;;;;4974581;28;20203;-67
2022/08/16 12:25:48;;;;;;;4.80;4.50;;;29.20;64.80;;;;;;4975200;28;20181;-66
2022/08/16 12:28:14;;;;;;;4.30;4.00;;;29.20;64.60;;;;;;4975238;28;20263;-65
2022/08/16 12:30:43;;;;;;;4.13;3.80;;;29.10;65.50;;;;;;4974374;28;20502;-64
2022/08/16 12:33:12;;;;;;;9.30;4.13;;;29.10;65.40;;;;;;4974430;28;20464;-65
2022/08/16 12:35:38;;;;;;;3.90;3.60;;;29.10;64.70;;;;;;4974889;28;20417;-65
2022/08/16 12:38:05;;;;;;;4.70;4.27;;;29.20;65.00;;;;;;4974835;28;20818;-65
2022/08/16 12:40:38;;;;;;;4.43;3.57;;;29.20;64.70;;;;;;4975051;28;20453;-66
2022/08/16 12:43:06;;;;;;;3.70;3.40;;;29.30;65.20;;;;;;4974081;28;20443;-66
2022/08/16 12:45:34;;;;;;;3.93;3.63;;;29.20;64.10;;;;;;4974296;28;20777;-66
2022/08/16 12:50:45;;;;;;;4.27;3.90;;;28.80;64.60;;;;;;4974777;28;20454;-65
2022/08/16 12:53:12;;;;;;;5.73;3.93;;;28.80;65.10;;;;;;4974378;28;20474;-65
2022/08/16 12:55:38;;;;;;;5.00;4.43;;;28.70;65.10;;;;;;4974721;28;20419;-66
2022/08/16 12:58:04;;;;;;;4.13;3.83;;;28.80;65.70;;;;;;4974741;28;20476;-66
2022/08/16 13:00:31;;;;;;;4.30;3.90;;;28.80;65.60;;;;;;4974687;28;20781;-65
2022/08/16 13:02:58;;;;;;;4.13;3.83;;;28.90;64.50;;;;;;4973876;28;20392;-63
2022/08/16 13:05:24;;;;;;;3.83;3.53;;;28.90;64.60;;;;;;4974069;28;20991;-65
2022/08/16 13:07:51;;;;;;;4.17;3.77;;;28.90;64.40;;;;;;4974572;28;20386;-67
2022/08/16 13:10:17;;;;;;;4.87;4.57;;;28.80;64.40;;;;;;4974604;28;20398;-65
2022/08/16 13:12:51;;;;;;;3.97;3.67;;;28.80;63.80;;;;;;4974187;28;20410;-65
2022/08/16 13:15:20;;;;;;;3.40;3.20;;;28.90;64.10;;;;;;4974404;28;20772;-67
2022/08/16 13:17:46;;;;;;;4.03;3.73;;;28.90;63.80;;;;;;4974434;28;20414;-65
2022/08/16 13:20:18;;;;;;;4.93;4.40;;;28.80;63.70;;;;;;4974621;28;20935;-65
2022/08/16 13:22:49;;;;;;;11.77;3.80;;;28.60;64.30;;;;;;4974034;28;20190;-65
2022/08/16 13:25:18;;;;;;;4.10;3.80;;;28.40;64.60;;;;;;4973478;28;20455;-65
2022/08/16 13:27:43;;;;;;;5.80;4.60;;;28.30;64.70;;;;;;4974013;28;20424;-64
2022/08/16 13:30:10;;;;;;;4.27;3.63;;;28.10;65.20;;;;;;4974269;28;20410;-67
2022/08/16 13:32:36;;;;;;;5.13;4.63;;;28.00;65.50;;;;;;4973634;28;20178;-70
2022/08/16 13:35:02;;;;;;;4.77;4.37;;;27.90;66.40;;;;;;4973979;28;20506;-67
2022/08/16 13:37:28;;;;;;;3.90;3.60;;;27.80;65.30;;;;;;4974151;28;20181;-67
2022/08/16 13:39:53;;;;;;;4.23;3.87;;;27.60;66.70;;;;;;4974458;28;20481;-65
2022/08/16 13:42:19;;;;;;;4.40;4.10;;;27.60;67.00;;;;;;4975411;28;20168;-66
2022/08/16 13:44:47;;;;;;;4.33;3.83;;;27.60;66.20;;;;;;4977243;28;20292;-65
2022/08/16 13:47:13;;;;;;;4.37;3.97;;;27.60;65.70;;;;;;4978237;28;20447;-63
2022/08/16 13:49:40;;;;;;;4.00;3.70;;;27.50;66.20;;;;;;4977910;28;20474;-66
2022/08/16 13:52:06;;;;;;;4.20;3.90;;;27.70;66.70;;;;;;4977368;28;20426;-64
2022/08/16 13:54:32;;;;;;;3.87;3.57;;;27.70;66.00;;;;;;4977190;28;20490;-66
2022/08/16 13:56:57;;;;;;;4.83;4.43;;;27.80;66.60;;;;;;4977814;28;20396;-72
2022/08/16 13:59:23;;;;;;;4.10;3.77;;;28.00;65.70;;;;;;4977757;28;20185;-72
2022/08/16 14:01:51;;;;;;;4.03;3.73;;;28.10;65.40;;;;;;4977599;28;20178;-70
2022/08/16 14:04:17;;;;;;;3.90;3.60;;;28.20;65.10;;;;;;4977186;28;20318;-70
2022/08/16 14:06:43;;;;;;;4.00;3.60;;;28.20;64.40;;;;;;4977290;28;20944;-67
2022/08/16 14:09:10;;;;;;;3.90;3.60;;;28.20;63.70;;;;;;4977492;28;20216;-68
2022/08/16 14:11:36;;;;;;;5.13;4.07;;;28.10;64.10;;;;;;4977469;28;20174;-68
2022/08/16 14:14:03;;;;;;;4.00;3.70;;;28.10;64.00;;;;;;4975768;28;20978;-69
2022/08/16 14:16:29;;;;;;;5.20;4.73;;;28.10;64.60;;;;;;4977322;28;20410;-69
2022/08/16 14:18:54;;;;;;;4.97;4.60;;;28.10;64.90;;;;;;4977210;28;20914;-69
2022/08/16 14:21:21;;;;;;;8.83;6.00;;;28.20;64.80;;;;;;4977454;28;20186;-69
2022/08/16 14:23:47;;;;;;;5.00;4.60;;;28.30;64.50;;;;;;4975475;28;20692;-69
2022/08/16 14:26:13;;;;;;;3.67;3.47;;;28.40;63.80;;;;;;4977149;28;20428;-69
2022/08/16 14:28:38;;;;;;;4.20;3.90;;;28.50;63.60;;;;;;4977180;28;20179;-69
2022/08/16 14:31:05;;;;;;;4.30;3.87;;;28.50;63.00;;;;;;4977199;28;20177;-69
2022/08/16 14:33:31;;;;;;;4.07;3.67;;;28.60;62.90;;;;;;4976737;28;20245;-69
2022/08/16 14:35:57;;;;;;;4.37;3.97;;;28.70;62.40;;;;;;4977205;28;20433;-69
2022/08/16 14:38:23;;;;;;;3.60;3.40;;;28.70;62.20;;;;;;4977219;28;20265;-69
2022/08/16 14:40:49;;;;;;;4.50;4.03;;;28.70;62.10;;;;;;4976933;28;20848;-68
2022/08/16 14:43:15;;;;;;;3.70;3.40;;;28.70;62.40;;;;;;4976483;28;20177;-69
2022/08/16 14:45:41;;;;;;;4.50;4.20;;;28.70;62.20;;;;;;4976935;28;20482;-69
2022/08/16 14:48:07;;;;;;;4.03;3.73;;;28.70;62.40;;;;;;4976944;28;20200;-69
2022/08/16 14:50:33;;;;;;;4.00;3.80;;;28.70;62.00;;;;;;4977099;28;20433;-69
2022/08/16 14:53:06;;;;;;;4.60;4.30;;;28.70;61.60;;;;;;4975521;28;20217;-65
2022/08/16 14:55:34;;;;;;;4.53;4.23;;;28.70;61.90;;;;;;4975426;28;20485;-64
2022/08/16 14:58:00;;;;;;;4.07;3.77;;;28.50;62.10;;;;;;4976728;28;20389;-64
2022/08/16 15:00:27;;;;;;;4.03;3.73;;;28.40;63.20;;;;;;4976655;28;20449;-64
2022/08/16 15:02:55;;;;;;;3.90;3.70;;;28.30;62.90;;;;;;4976124;28;20409;-66
2022/08/16 15:05:23;;;;;;;4.90;4.50;;;28.30;62.80;;;;;;4976323;28;20521;-69
2022/08/16 15:07:50;;;;;;;4.57;4.17;;;28.40;62.60;;;;;;4976503;28;20388;-67
2022/08/16 15:10:16;;;;;;;3.53;3.30;;;28.40;62.10;;;;;;4976459;28;20495;-70
2022/08/16 15:12:44;;;;;;;4.50;4.20;;;28.40;62.00;;;;;;4976257;28;20479;-70
2022/08/16 15:15:12;;;;;;;4.00;3.70;;;28.40;62.40;;;;;;4976328;28;20415;-69
2022/08/16 15:17:39;;;;;;;4.30;3.90;;;28.50;62.50;;;;;;4976292;28;20398;-70
2022/08/16 15:20:09;;;;;;;3.80;3.50;;;28.50;62.50;;;;;;4976322;28;20740;-72
2022/08/16 15:22:38;;;;;;;4.00;3.70;;;28.60;62.80;;;;;;4975936;28;20387;-70
2022/08/16 15:25:08;;;;;;;4.20;3.80;;;28.70;62.90;;;;;;4976070;28;20501;-70
2022/08/16 15:27:40;;;;;;;4.27;3.93;;;28.70;62.00;;;;;;4976546;28;20456;-69
2022/08/16 15:30:08;;;;;;;4.10;3.80;;;28.80;61.90;;;;;;4976145;28;20414;-69
2022/08/16 15:32:34;;;;;;;4.07;3.73;;;28.80;61.60;;;;;;4975626;28;20423;-67
2022/08/16 15:35:00;;;;;;;3.93;3.53;;;28.70;61.40;;;;;;4975751;28;20452;-66
2022/08/16 15:37:26;;;;;;;5.03;4.43;;;28.70;61.60;;;;;;4975836;28;20186;-69
2022/08/16 15:39:51;;;;;;;4.57;4.07;;;28.60;61.60;;;;;;4975882;28;20172;-66
2022/08/16 15:42:18;;;;;;;4.60;4.30;;;28.60;61.60;;;;;;4975567;28;20175;-68
2022/08/16 15:44:44;;;;;;;4.17;3.87;;;28.60;62.10;;;;;;4975600;28;20225;-67
2022/08/16 15:47:16;;;;;;;3.83;3.53;;;28.60;62.20;;;;;;4975821;28;20439;-68
2022/08/16 15:49:43;;;;;;;4.33;4.03;;;28.60;62.10;;;;;;4975655;28;20414;-71
2022/08/16 15:52:13;;;;;;;3.80;3.60;;;28.50;62.00;;;;;;4974216;28;20447;-73
2022/08/16 15:54:41;;;;;;;5.60;4.10;;;28.50;61.60;;;;;;4975410;28;20448;-70
2022/08/16 15:57:06;;;;;;;3.63;3.43;;;28.50;62.10;;;;;;4975684;28;20736;-67
2022/08/16 15:59:32;;;;;;;8.50;4.27;;;28.50;62.00;;;;;;4974263;28;20431;-66
2022/08/16 16:01:58;;;;;;;3.80;3.50;;;28.40;61.80;;;;;;4975403;28;20181;-66
2022/08/16 16:04:27;;;;;;;5.10;3.97;;;28.40;61.80;;;;;;4974948;28;20435;-66
2022/08/16 16:06:55;;;;;;;4.20;3.90;;;28.40;62.20;;;;;;4975290;28;20244;-65
2022/08/16 16:09:22;;;;;;;3.80;3.50;;;28.40;62.30;;;;;;4975386;28;20396;-66
2022/08/16 16:11:48;;;;;;;4.37;3.80;;;28.40;62.20;;;;;;4975174;28;20446;-65
2022/08/16 16:14:14;;;;;;;4.30;3.97;;;28.40;62.20;;;;;;4973428;28;20447;-65
2022/08/16 16:16:43;;;;;;;10.47;4.13;;;28.30;62.30;;;;;;4975110;28;20508;-65
2022/08/16 16:19:09;;;;;;;4.13;3.83;;;28.30;63.00;;;;;;4975064;28;20377;-66
2022/08/16 16:21:36;;;;;;;4.07;3.77;;;28.20;62.50;;;;;;4975483;28;20410;-72
2022/08/16 16:24:03;;;;;;;3.70;3.40;;;28.20;63.00;;;;;;4974791;28;20838;-72
2022/08/16 16:26:29;;;;;;;3.90;3.60;;;28.20;62.90;;;;;;4974995;28;20428;-67
2022/08/16 16:28:57;;;;;;;4.10;3.80;;;28.10;62.80;;;;;;4975182;28;20379;-68
2022/08/16 16:31:25;;;;;;;4.10;3.80;;;28.10;62.70;;;;;;4975004;28;20178;-66
2022/08/16 16:33:54;;;;;;;6.00;4.83;;;28.10;62.60;;;;;;4974685;28;20865;-67
2022/08/16 16:36:22;;;;;;;3.53;3.33;;;28.10;62.70;;;;;;4975050;28;20415;-66
2022/08/16 16:38:49;;;;;;;3.93;3.63;;;28.10;62.70;;;;;;4974895;28;20409;-67
2022/08/16 16:41:21;;;;;;;4.07;3.77;;;28.00;62.50;;;;;;4974851;28;20510;-67
2022/08/16 16:43:48;;;;;;;3.93;3.63;;;28.00;62.30;;;;;;4974349;28;20443;-66
2022/08/16 16:46:15;;;;;;;3.83;3.63;;;27.90;62.50;;;;;;4975050;28;20895;-66
2022/08/16 16:48:41;;;;;;;3.70;3.50;;;27.90;62.50;;;;;;4974841;28;20387;-67
2022/08/16 16:51:08;;;;;;;4.10;3.80;;;27.90;62.70;;;;;;4974910;28;20538;-66
2022/08/16 16:53:36;;;;;;;4.27;3.97;;;27.90;63.10;;;;;;4974190;28;20442;-68